sensor_id;sensor_type;location;lat;lon;timestamp;P1;durP1;ratioP1;P2;durP2;ratioP2
72132;SDS011;60008;50.826;6.896;2023-04-24T00:00:26;0.93;;;0.40;;
72132;SDS011;60008;50.826;6.896;2023-04-24T00:03:11;4.65;;;0.40;;
72132;SDS011;60008;50.826;6.896;2023-04-24T00:05:58;2.25;;;0.43;;
72132;SDS011;60008;50.826;6.896;2023-04-24T00:08:43;0.87;;;0.47;;
72132;SDS011;60008;50.826;6.896;2023-04-24T00:11:28;2.33;;;0.50;;
72132;SDS011;60008;50.826;6.896;2023-04-24T00:14:14;2.00;;;0.60;;
72132;SDS011;60008;50.826;6.896;2023-04-24T00:16:59;1.20;;;0.57;;
72132;SDS011;60008;50.826;6.896;2023-04-24T00:19:44;0.95;;;0.40;;
72132;SDS011;60008;50.826;6.896;2023-04-24T00:22:30;1.57;;;0.50;;
72132;SDS011;60008;50.826;6.896;2023-04-24T00:25:15;0.90;;;0.45;;
72132;SDS011;60008;50.826;6.896;2023-04-24T00:28:01;1.45;;;0.60;;
72132;SDS011;60008;50.826;6.896;2023-04-24T00:30:45;1.35;;;0.50;;
72132;SDS011;60008;50.826;6.896;2023-04-24T00:33:31;1.35;;;0.52;;
72132;SDS011;60008;50.826;6.896;2023-04-24T00:36:15;1.27;;;0.50;;
72132;SDS011;60008;50.826;6.896;2023-04-24T00:39:00;1.63;;;0.50;;
72132;SDS011;60008;50.826;6.896;2023-04-24T00:41:45;3.42;;;0.70;;
72132;SDS011;60008;50.826;6.896;2023-04-24T00:44:30;1.27;;;0.50;;
72132;SDS011;60008;50.826;6.896;2023-04-24T00:47:16;1.63;;;0.52;;
72132;SDS011;60008;50.826;6.896;2023-04-24T00:50:04;1.13;;;0.40;;
72132;SDS011;60008;50.826;6.896;2023-04-24T00:52:50;1.30;;;0.50;;
72132;SDS011;60008;50.826;6.896;2023-04-24T00:55:35;3.45;;;0.60;;
72132;SDS011;60008;50.826;6.896;2023-04-24T00:58:22;2.08;;;0.50;;
72132;SDS011;60008;50.826;6.896;2023-04-24T01:01:07;1.30;;;0.50;;
72132;SDS011;60008;50.826;6.896;2023-04-24T01:03:54;0.97;;;0.40;;
72132;SDS011;60008;50.826;6.896;2023-04-24T01:06:40;1.40;;;0.60;;
72132;SDS011;60008;50.826;6.896;2023-04-24T01:09:27;1.60;;;0.52;;
72132;SDS011;60008;50.826;6.896;2023-04-24T01:12:13;0.82;;;0.32;;
72132;SDS011;60008;50.826;6.896;2023-04-24T01:14:58;1.17;;;0.43;;
72132;SDS011;60008;50.826;6.896;2023-04-24T01:17:43;1.40;;;0.50;;
72132;SDS011;60008;50.826;6.896;2023-04-24T01:20:29;3.45;;;0.68;;
72132;SDS011;60008;50.826;6.896;2023-04-24T01:23:15;1.73;;;0.70;;
72132;SDS011;60008;50.826;6.896;2023-04-24T01:26:00;1.60;;;0.68;;
72132;SDS011;60008;50.826;6.896;2023-04-24T01:28:46;2.83;;;0.75;;
72132;SDS011;60008;50.826;6.896;2023-04-24T01:31:32;1.70;;;0.70;;
72132;SDS011;60008;50.826;6.896;2023-04-24T01:34:18;1.92;;;0.80;;
72132;SDS011;60008;50.826;6.896;2023-04-24T01:37:03;2.10;;;1.00;;
72132;SDS011;60008;50.826;6.896;2023-04-24T01:39:49;2.30;;;0.88;;
72132;SDS011;60008;50.826;6.896;2023-04-24T01:42:35;1.75;;;0.80;;
72132;SDS011;60008;50.826;6.896;2023-04-24T01:45:20;1.90;;;1.07;;
72132;SDS011;60008;50.826;6.896;2023-04-24T01:48:05;3.03;;;1.00;;
72132;SDS011;60008;50.826;6.896;2023-04-24T01:50:50;2.78;;;1.38;;
72132;SDS011;60008;50.826;6.896;2023-04-24T01:53:35;2.92;;;1.30;;
72132;SDS011;60008;50.826;6.896;2023-04-24T01:56:21;2.83;;;1.20;;
72132;SDS011;60008;50.826;6.896;2023-04-24T01:59:06;2.10;;;0.70;;
72132;SDS011;60008;50.826;6.896;2023-04-24T02:01:51;2.70;;;1.58;;
72132;SDS011;60008;50.826;6.896;2023-04-24T02:04:36;3.20;;;1.23;;
72132;SDS011;60008;50.826;6.896;2023-04-24T02:07:21;2.30;;;1.15;;
72132;SDS011;60008;50.826;6.896;2023-04-24T02:10:07;2.75;;;1.45;;
72132;SDS011;60008;50.826;6.896;2023-04-24T02:12:52;4.20;;;1.00;;
72132;SDS011;60008;50.826;6.896;2023-04-24T02:15:37;2.50;;;1.15;;
72132;SDS011;60008;50.826;6.896;2023-04-24T02:18:22;3.83;;;1.13;;
72132;SDS011;60008;50.826;6.896;2023-04-24T02:21:07;6.45;;;1.60;;
72132;SDS011;60008;50.826;6.896;2023-04-24T02:23:52;3.63;;;2.03;;
72132;SDS011;60008;50.826;6.896;2023-04-24T02:26:37;7.30;;;1.80;;
72132;SDS011;60008;50.826;6.896;2023-04-24T02:29:22;4.97;;;1.92;;
72132;SDS011;60008;50.826;6.896;2023-04-24T02:32:08;3.72;;;1.83;;
72132;SDS011;60008;50.826;6.896;2023-04-24T02:34:56;2.58;;;1.30;;
72132;SDS011;60008;50.826;6.896;2023-04-24T02:37:41;4.80;;;2.15;;
72132;SDS011;60008;50.826;6.896;2023-04-24T02:40:26;9.40;;;2.33;;
72132;SDS011;60008;50.826;6.896;2023-04-24T02:43:11;4.78;;;1.85;;
72132;SDS011;60008;50.826;6.896;2023-04-24T02:45:56;5.43;;;2.90;;
72132;SDS011;60008;50.826;6.896;2023-04-24T02:48:41;5.97;;;2.15;;
72132;SDS011;60008;50.826;6.896;2023-04-24T02:51:26;5.68;;;2.38;;
72132;SDS011;60008;50.826;6.896;2023-04-24T02:54:11;4.87;;;2.37;;
72132;SDS011;60008;50.826;6.896;2023-04-24T02:56:56;4.38;;;2.33;;
72132;SDS011;60008;50.826;6.896;2023-04-24T02:59:41;5.03;;;2.17;;
72132;SDS011;60008;50.826;6.896;2023-04-24T03:02:26;2.63;;;1.17;;
72132;SDS011;60008;50.826;6.896;2023-04-24T03:05:11;5.60;;;2.45;;
72132;SDS011;60008;50.826;6.896;2023-04-24T03:07:57;7.90;;;2.70;;
72132;SDS011;60008;50.826;6.896;2023-04-24T03:10:41;5.28;;;2.45;;
72132;SDS011;60008;50.826;6.896;2023-04-24T03:13:26;4.68;;;2.33;;
72132;SDS011;60008;50.826;6.896;2023-04-24T03:16:11;6.00;;;2.50;;
72132;SDS011;60008;50.826;6.896;2023-04-24T03:18:57;2.50;;;1.17;;
72132;SDS011;60008;50.826;6.896;2023-04-24T03:21:41;3.83;;;1.43;;
72132;SDS011;60008;50.826;6.896;2023-04-24T03:24:26;5.63;;;2.42;;
72132;SDS011;60008;50.826;6.896;2023-04-24T03:27:12;5.70;;;2.92;;
72132;SDS011;60008;50.826;6.896;2023-04-24T03:29:57;5.47;;;2.28;;
72132;SDS011;60008;50.826;6.896;2023-04-24T03:32:42;10.00;;;2.42;;
72132;SDS011;60008;50.826;6.896;2023-04-24T03:35:27;3.40;;;1.33;;
72132;SDS011;60008;50.826;6.896;2023-04-24T03:38:12;6.18;;;2.80;;
72132;SDS011;60008;50.826;6.896;2023-04-24T03:40:57;4.78;;;2.35;;
72132;SDS011;60008;50.826;6.896;2023-04-24T03:43:42;7.53;;;2.55;;
72132;SDS011;60008;50.826;6.896;2023-04-24T03:46:27;6.05;;;2.22;;
72132;SDS011;60008;50.826;6.896;2023-04-24T03:49:12;5.00;;;2.10;;
72132;SDS011;60008;50.826;6.896;2023-04-24T03:51:57;4.97;;;2.58;;
72132;SDS011;60008;50.826;6.896;2023-04-24T03:54:42;7.05;;;2.20;;
72132;SDS011;60008;50.826;6.896;2023-04-24T03:57:27;5.00;;;2.45;;
72132;SDS011;60008;50.826;6.896;2023-04-24T04:00:12;5.93;;;2.53;;
72132;SDS011;60008;50.826;6.896;2023-04-24T04:02:58;7.13;;;2.60;;
72132;SDS011;60008;50.826;6.896;2023-04-24T04:05:44;4.45;;;2.13;;
72132;SDS011;60008;50.826;6.896;2023-04-24T04:08:30;5.13;;;1.90;;
72132;SDS011;60008;50.826;6.896;2023-04-24T04:11:15;5.28;;;2.70;;
72132;SDS011;60008;50.826;6.896;2023-04-24T04:14:00;6.75;;;2.75;;
72132;SDS011;60008;50.826;6.896;2023-04-24T04:16:45;7.23;;;2.57;;
72132;SDS011;60008;50.826;6.896;2023-04-24T04:19:30;4.38;;;2.30;;
72132;SDS011;60008;50.826;6.896;2023-04-24T04:22:15;5.40;;;2.38;;
72132;SDS011;60008;50.826;6.896;2023-04-24T04:25:00;4.72;;;2.00;;
72132;SDS011;60008;50.826;6.896;2023-04-24T04:27:46;6.68;;;3.17;;
72132;SDS011;60008;50.826;6.896;2023-04-24T04:30:33;4.77;;;2.07;;
72132;SDS011;60008;50.826;6.896;2023-04-24T04:33:18;4.88;;;2.55;;
72132;SDS011;60008;50.826;6.896;2023-04-24T04:36:03;6.85;;;2.70;;
72132;SDS011;60008;50.826;6.896;2023-04-24T04:38:49;4.07;;;2.00;;
72132;SDS011;60008;50.826;6.896;2023-04-24T04:41:33;4.93;;;2.40;;
72132;SDS011;60008;50.826;6.896;2023-04-24T04:44:22;5.57;;;2.63;;
72132;SDS011;60008;50.826;6.896;2023-04-24T04:47:08;7.28;;;2.63;;
72132;SDS011;60008;50.826;6.896;2023-04-24T04:49:53;6.00;;;2.42;;
72132;SDS011;60008;50.826;6.896;2023-04-24T04:52:39;5.32;;;2.08;;
72132;SDS011;60008;50.826;6.896;2023-04-24T04:55:24;6.35;;;3.13;;
72132;SDS011;60008;50.826;6.896;2023-04-24T04:58:10;8.03;;;2.63;;
72132;SDS011;60008;50.826;6.896;2023-04-24T05:00:55;6.40;;;2.72;;
72132;SDS011;60008;50.826;6.896;2023-04-24T05:03:42;4.95;;;2.60;;
72132;SDS011;60008;50.826;6.896;2023-04-24T05:06:27;5.28;;;2.60;;
72132;SDS011;60008;50.826;6.896;2023-04-24T05:09:12;7.07;;;2.92;;
72132;SDS011;60008;50.826;6.896;2023-04-24T05:11:57;5.80;;;2.00;;
72132;SDS011;60008;50.826;6.896;2023-04-24T05:14:42;7.25;;;2.55;;
72132;SDS011;60008;50.826;6.896;2023-04-24T05:17:27;5.07;;;2.40;;
72132;SDS011;60008;50.826;6.896;2023-04-24T05:20:12;5.07;;;2.50;;
72132;SDS011;60008;50.826;6.896;2023-04-24T05:22:57;6.07;;;3.00;;
72132;SDS011;60008;50.826;6.896;2023-04-24T05:25:42;3.43;;;1.77;;
72132;SDS011;60008;50.826;6.896;2023-04-24T05:28:27;6.05;;;3.00;;
72132;SDS011;60008;50.826;6.896;2023-04-24T05:31:13;6.38;;;3.00;;
72132;SDS011;60008;50.826;6.896;2023-04-24T05:33:58;7.75;;;2.88;;
72132;SDS011;60008;50.826;6.896;2023-04-24T05:36:43;6.38;;;2.75;;
72132;SDS011;60008;50.826;6.896;2023-04-24T05:39:28;5.23;;;2.23;;
72132;SDS011;60008;50.826;6.896;2023-04-24T05:42:13;5.93;;;2.92;;
72132;SDS011;60008;50.826;6.896;2023-04-24T05:44:58;6.47;;;2.92;;
72132;SDS011;60008;50.826;6.896;2023-04-24T05:47:43;4.10;;;2.40;;
72132;SDS011;60008;50.826;6.896;2023-04-24T05:50:28;7.82;;;2.70;;
72132;SDS011;60008;50.826;6.896;2023-04-24T05:53:13;4.77;;;2.37;;
72132;SDS011;60008;50.826;6.896;2023-04-24T05:55:58;5.13;;;2.33;;
72132;SDS011;60008;50.826;6.896;2023-04-24T05:58:45;4.72;;;2.17;;
72132;SDS011;60008;50.826;6.896;2023-04-24T06:01:30;6.85;;;2.70;;
72132;SDS011;60008;50.826;6.896;2023-04-24T06:04:16;5.75;;;2.60;;
72132;SDS011;60008;50.826;6.896;2023-04-24T06:07:01;5.17;;;2.60;;
72132;SDS011;60008;50.826;6.896;2023-04-24T06:09:46;2.33;;;1.08;;
72132;SDS011;60008;50.826;6.896;2023-04-24T06:12:32;5.18;;;1.85;;
72132;SDS011;60008;50.826;6.896;2023-04-24T06:15:16;6.93;;;1.98;;
72132;SDS011;60008;50.826;6.896;2023-04-24T06:18:02;3.58;;;1.40;;
72132;SDS011;60008;50.826;6.896;2023-04-24T06:20:47;3.63;;;1.50;;
72132;SDS011;60008;50.826;6.896;2023-04-24T06:23:32;4.97;;;2.13;;
72132;SDS011;60008;50.826;6.896;2023-04-24T06:26:17;3.47;;;1.58;;
72132;SDS011;60008;50.826;6.896;2023-04-24T06:29:02;5.13;;;1.33;;
72132;SDS011;60008;50.826;6.896;2023-04-24T06:31:47;1.98;;;0.98;;
72132;SDS011;60008;50.826;6.896;2023-04-24T06:34:33;5.23;;;1.40;;
72132;SDS011;60008;50.826;6.896;2023-04-24T06:37:19;3.15;;;0.88;;
72132;SDS011;60008;50.826;6.896;2023-04-24T06:40:05;3.60;;;1.10;;
72132;SDS011;60008;50.826;6.896;2023-04-24T06:42:52;1.73;;;0.73;;
72132;SDS011;60008;50.826;6.896;2023-04-24T06:45:37;2.33;;;0.90;;
72132;SDS011;60008;50.826;6.896;2023-04-24T06:48:24;1.70;;;0.67;;
72132;SDS011;60008;50.826;6.896;2023-04-24T06:51:10;3.00;;;0.80;;
72132;SDS011;60008;50.826;6.896;2023-04-24T06:53:55;2.10;;;0.82;;
72132;SDS011;60008;50.826;6.896;2023-04-24T06:56:43;1.55;;;0.68;;
72132;SDS011;60008;50.826;6.896;2023-04-24T06:59:30;1.40;;;0.65;;
72132;SDS011;60008;50.826;6.896;2023-04-24T07:02:15;1.27;;;0.70;;
72132;SDS011;60008;50.826;6.896;2023-04-24T07:05:00;1.38;;;0.57;;
72132;SDS011;60008;50.826;6.896;2023-04-24T07:07:46;1.50;;;0.60;;
72132;SDS011;60008;50.826;6.896;2023-04-24T07:10:32;1.42;;;0.60;;
72132;SDS011;60008;50.826;6.896;2023-04-24T07:13:20;1.85;;;0.63;;
72132;SDS011;60008;50.826;6.896;2023-04-24T07:16:05;1.87;;;0.57;;
72132;SDS011;60008;50.826;6.896;2023-04-24T07:18:50;1.63;;;0.57;;
72132;SDS011;60008;50.826;6.896;2023-04-24T07:21:36;1.20;;;0.52;;
72132;SDS011;60008;50.826;6.896;2023-04-24T07:24:20;1.27;;;0.57;;
72132;SDS011;60008;50.826;6.896;2023-04-24T07:27:08;1.55;;;0.60;;
72132;SDS011;60008;50.826;6.896;2023-04-24T07:29:53;1.30;;;0.57;;
72132;SDS011;60008;50.826;6.896;2023-04-24T07:32:38;0.70;;;0.20;;
72132;SDS011;60008;50.826;6.896;2023-04-24T07:35:23;1.92;;;0.70;;
72132;SDS011;60008;50.826;6.896;2023-04-24T07:38:09;0.65;;;0.22;;
72132;SDS011;60008;50.826;6.896;2023-04-24T07:40:54;0.80;;;0.32;;
72132;SDS011;60008;50.826;6.896;2023-04-24T07:43:40;1.40;;;0.50;;
72132;SDS011;60008;50.826;6.896;2023-04-24T07:46:26;1.60;;;0.45;;
72132;SDS011;60008;50.826;6.896;2023-04-24T07:49:14;0.85;;;0.30;;
72132;SDS011;60008;50.826;6.896;2023-04-24T07:52:02;1.42;;;0.30;;
72132;SDS011;60008;50.826;6.896;2023-04-24T07:54:47;0.88;;;0.30;;
72132;SDS011;60008;50.826;6.896;2023-04-24T07:57:32;2.30;;;0.30;;
72132;SDS011;60008;50.826;6.896;2023-04-24T08:00:17;1.83;;;0.70;;
72132;SDS011;60008;50.826;6.896;2023-04-24T08:03:02;4.50;;;0.90;;
72132;SDS011;60008;50.826;6.896;2023-04-24T08:05:48;2.28;;;0.60;;
72132;SDS011;60008;50.826;6.896;2023-04-24T08:08:33;1.58;;;0.57;;
72132;SDS011;60008;50.826;6.896;2023-04-24T08:11:18;2.43;;;0.50;;
72132;SDS011;60008;50.826;6.896;2023-04-24T08:14:03;1.50;;;0.73;;
72132;SDS011;60008;50.826;6.896;2023-04-24T08:16:48;3.00;;;0.90;;
72132;SDS011;60008;50.826;6.896;2023-04-24T08:19:33;1.48;;;0.73;;
72132;SDS011;60008;50.826;6.896;2023-04-24T08:22:18;1.73;;;0.77;;
72132;SDS011;60008;50.826;6.896;2023-04-24T08:25:03;2.00;;;0.90;;
72132;SDS011;60008;50.826;6.896;2023-04-24T08:27:48;1.77;;;0.77;;
72132;SDS011;60008;50.826;6.896;2023-04-24T08:30:33;2.88;;;1.00;;
72132;SDS011;60008;50.826;6.896;2023-04-24T08:33:18;2.35;;;0.77;;
72132;SDS011;60008;50.826;6.896;2023-04-24T08:36:04;2.72;;;0.80;;
72132;SDS011;60008;50.826;6.896;2023-04-24T08:38:49;1.97;;;0.67;;
72132;SDS011;60008;50.826;6.896;2023-04-24T08:41:35;1.92;;;0.70;;
72132;SDS011;60008;50.826;6.896;2023-04-24T08:44:21;2.50;;;0.70;;
72132;SDS011;60008;50.826;6.896;2023-04-24T08:47:06;1.38;;;0.57;;
72132;SDS011;60008;50.826;6.896;2023-04-24T08:49:52;1.90;;;0.55;;
72132;SDS011;60008;50.826;6.896;2023-04-24T08:52:38;1.97;;;0.80;;
72132;SDS011;60008;50.826;6.896;2023-04-24T08:55:23;2.55;;;0.90;;
72132;SDS011;60008;50.826;6.896;2023-04-24T08:58:09;3.75;;;1.08;;
72132;SDS011;60008;50.826;6.896;2023-04-24T09:00:56;3.63;;;1.10;;
72132;SDS011;60008;50.826;6.896;2023-04-24T09:03:41;2.20;;;0.93;;
72132;SDS011;60008;50.826;6.896;2023-04-24T09:06:27;2.57;;;0.90;;
72132;SDS011;60008;50.826;6.896;2023-04-24T09:09:13;2.50;;;1.10;;
72132;SDS011;60008;50.826;6.896;2023-04-24T09:11:58;1.30;;;0.40;;
72132;SDS011;60008;50.826;6.896;2023-04-24T09:14:44;3.20;;;1.20;;
72132;SDS011;60008;50.826;6.896;2023-04-24T09:17:30;6.70;;;1.98;;
72132;SDS011;60008;50.826;6.896;2023-04-24T09:20:15;1.77;;;0.80;;
72132;SDS011;60008;50.826;6.896;2023-04-24T09:23:00;3.35;;;1.50;;
72132;SDS011;60008;50.826;6.896;2023-04-24T09:25:46;4.95;;;1.85;;
72132;SDS011;60008;50.826;6.896;2023-04-24T09:28:40;3.92;;;1.30;;
72132;SDS011;60008;50.826;6.896;2023-04-24T09:31:26;5.28;;;1.58;;
72132;SDS011;60008;50.826;6.896;2023-04-24T09:34:13;2.17;;;1.10;;
72132;SDS011;60008;50.826;6.896;2023-04-24T09:36:58;1.98;;;0.65;;
72132;SDS011;60008;50.826;6.896;2023-04-24T09:39:44;6.85;;;1.52;;
72132;SDS011;60008;50.826;6.896;2023-04-24T09:42:29;4.28;;;1.83;;
72132;SDS011;60008;50.826;6.896;2023-04-24T09:45:15;4.90;;;2.00;;
72132;SDS011;60008;50.826;6.896;2023-04-24T09:48:00;5.03;;;1.70;;
72132;SDS011;60008;50.826;6.896;2023-04-24T09:50:47;3.72;;;2.08;;
72132;SDS011;60008;50.826;6.896;2023-04-24T09:53:33;5.47;;;2.20;;
72132;SDS011;60008;50.826;6.896;2023-04-24T09:56:18;3.60;;;1.83;;
72132;SDS011;60008;50.826;6.896;2023-04-24T09:59:05;4.45;;;2.00;;
72132;SDS011;60008;50.826;6.896;2023-04-24T10:01:50;3.77;;;1.60;;
72132;SDS011;60008;50.826;6.896;2023-04-24T10:04:36;4.68;;;1.75;;
72132;SDS011;60008;50.826;6.896;2023-04-24T10:07:27;3.95;;;1.52;;
72132;SDS011;60008;50.826;6.896;2023-04-24T10:10:12;2.70;;;1.42;;
72132;SDS011;60008;50.826;6.896;2023-04-24T10:12:58;5.13;;;1.95;;
72132;SDS011;60008;50.826;6.896;2023-04-24T10:15:44;3.90;;;1.47;;
72132;SDS011;60008;50.826;6.896;2023-04-24T10:18:32;6.13;;;1.83;;
72132;SDS011;60008;50.826;6.896;2023-04-24T10:21:18;4.18;;;1.95;;
72132;SDS011;60008;50.826;6.896;2023-04-24T10:24:04;6.13;;;2.60;;
72132;SDS011;60008;50.826;6.896;2023-04-24T10:26:52;7.80;;;2.30;;
72132;SDS011;60008;50.826;6.896;2023-04-24T10:29:37;4.77;;;1.93;;
72132;SDS011;60008;50.826;6.896;2023-04-24T10:32:23;9.65;;;2.20;;
72132;SDS011;60008;50.826;6.896;2023-04-24T10:35:08;6.88;;;2.50;;
72132;SDS011;60008;50.826;6.896;2023-04-24T10:37:59;4.32;;;1.88;;
72132;SDS011;60008;50.826;6.896;2023-04-24T10:40:48;6.85;;;2.75;;
72132;SDS011;60008;50.826;6.896;2023-04-24T10:43:33;7.57;;;2.10;;
72132;SDS011;60008;50.826;6.896;2023-04-24T10:46:21;4.72;;;2.15;;
72132;SDS011;60008;50.826;6.896;2023-04-24T10:49:06;5.93;;;2.30;;
72132;SDS011;60008;50.826;6.896;2023-04-24T10:51:53;5.78;;;2.70;;
72132;SDS011;60008;50.826;6.896;2023-04-24T10:54:45;4.80;;;2.20;;
72132;SDS011;60008;50.826;6.896;2023-04-24T10:57:31;7.30;;;2.80;;
72132;SDS011;60008;50.826;6.896;2023-04-24T11:00:20;7.25;;;2.47;;
72132;SDS011;60008;50.826;6.896;2023-04-24T11:03:07;6.25;;;2.70;;
72132;SDS011;60008;50.826;6.896;2023-04-24T11:06:07;11.57;;;2.83;;
72132;SDS011;60008;50.826;6.896;2023-04-24T11:08:58;7.45;;;2.58;;
72132;SDS011;60008;50.826;6.896;2023-04-24T11:11:48;12.37;;;2.93;;
72132;SDS011;60008;50.826;6.896;2023-04-24T11:17:41;6.40;;;2.90;;
72132;SDS011;60008;50.826;6.896;2023-04-24T11:20:27;9.15;;;3.13;;
72132;SDS011;60008;50.826;6.896;2023-04-24T11:23:12;7.75;;;3.38;;
72132;SDS011;60008;50.826;6.896;2023-04-24T11:29:17;5.88;;;2.88;;
72132;SDS011;60008;50.826;6.896;2023-04-24T11:32:22;7.85;;;3.08;;
72132;SDS011;60008;50.826;6.896;2023-04-24T11:35:13;8.27;;;3.35;;
72132;SDS011;60008;50.826;6.896;2023-04-24T11:38:02;10.23;;;2.70;;
72132;SDS011;60008;50.826;6.896;2023-04-24T11:40:52;8.53;;;2.43;;
72132;SDS011;60008;50.826;6.896;2023-04-24T11:43:39;6.70;;;2.65;;
72132;SDS011;60008;50.826;6.896;2023-04-24T11:46:28;6.95;;;3.00;;
72132;SDS011;60008;50.826;6.896;2023-04-24T11:49:14;7.35;;;2.75;;
72132;SDS011;60008;50.826;6.896;2023-04-24T11:52:00;4.68;;;1.80;;
72132;SDS011;60008;50.826;6.896;2023-04-24T11:54:47;6.10;;;2.70;;
72132;SDS011;60008;50.826;6.896;2023-04-24T11:57:33;7.07;;;2.70;;
72132;SDS011;60008;50.826;6.896;2023-04-24T12:00:26;8.50;;;2.65;;
72132;SDS011;60008;50.826;6.896;2023-04-24T12:03:13;9.13;;;3.10;;
72132;SDS011;60008;50.826;6.896;2023-04-24T12:06:05;8.77;;;3.22;;
72132;SDS011;60008;50.826;6.896;2023-04-24T12:08:52;7.33;;;2.83;;
72132;SDS011;60008;50.826;6.896;2023-04-24T12:11:37;8.27;;;3.40;;
72132;SDS011;60008;50.826;6.896;2023-04-24T12:14:50;13.18;;;3.47;;
72132;SDS011;60008;50.826;6.896;2023-04-24T12:17:40;8.40;;;3.65;;
72132;SDS011;60008;50.826;6.896;2023-04-24T12:20:27;9.40;;;3.08;;
72132;SDS011;60008;50.826;6.896;2023-04-24T12:23:13;9.43;;;3.70;;
72132;SDS011;60008;50.826;6.896;2023-04-24T12:25:59;8.48;;;3.38;;
72132;SDS011;60008;50.826;6.896;2023-04-24T12:28:47;6.07;;;3.10;;
72132;SDS011;60008;50.826;6.896;2023-04-24T12:31:33;10.05;;;2.72;;
72132;SDS011;60008;50.826;6.896;2023-04-24T12:34:19;8.32;;;3.58;;
72132;SDS011;60008;50.826;6.896;2023-04-24T12:37:10;9.13;;;3.20;;
72132;SDS011;60008;50.826;6.896;2023-04-24T12:40:01;7.63;;;3.33;;
72132;SDS011;60008;50.826;6.896;2023-04-24T12:42:52;10.70;;;3.40;;
72132;SDS011;60008;50.826;6.896;2023-04-24T12:45:39;6.38;;;3.00;;
72132;SDS011;60008;50.826;6.896;2023-04-24T12:48:25;8.07;;;3.30;;
72132;SDS011;60008;50.826;6.896;2023-04-24T12:51:11;7.43;;;2.87;;
72132;SDS011;60008;50.826;6.896;2023-04-24T12:53:56;14.85;;;3.42;;
72132;SDS011;60008;50.826;6.896;2023-04-24T12:56:41;7.07;;;3.17;;
72132;SDS011;60008;50.826;6.896;2023-04-24T12:59:26;8.25;;;2.78;;
72132;SDS011;60008;50.826;6.896;2023-04-24T13:02:11;8.40;;;3.05;;
72132;SDS011;60008;50.826;6.896;2023-04-24T13:04:57;5.73;;;2.73;;
72132;SDS011;60008;50.826;6.896;2023-04-24T13:07:42;7.25;;;2.53;;
72132;SDS011;60008;50.826;6.896;2023-04-24T13:10:28;7.65;;;3.15;;
72132;SDS011;60008;50.826;6.896;2023-04-24T13:13:13;7.20;;;3.20;;
72132;SDS011;60008;50.826;6.896;2023-04-24T13:15:59;7.85;;;3.00;;
72132;SDS011;60008;50.826;6.896;2023-04-24T13:18:44;12.03;;;2.87;;
72132;SDS011;60008;50.826;6.896;2023-04-24T13:21:29;9.15;;;3.00;;
72132;SDS011;60008;50.826;6.896;2023-04-24T13:24:15;4.72;;;1.75;;
72132;SDS011;60008;50.826;6.896;2023-04-24T13:27:00;8.38;;;2.65;;
72132;SDS011;60008;50.826;6.896;2023-04-24T13:29:45;8.27;;;3.05;;
72132;SDS011;60008;50.826;6.896;2023-04-24T13:32:31;9.23;;;3.27;;
72132;SDS011;60008;50.826;6.896;2023-04-24T13:35:18;10.68;;;3.05;;
72132;SDS011;60008;50.826;6.896;2023-04-24T13:38:03;7.80;;;3.13;;
72132;SDS011;60008;50.826;6.896;2023-04-24T13:40:50;6.70;;;2.13;;
72132;SDS011;60008;50.826;6.896;2023-04-24T13:43:35;5.95;;;2.75;;
72132;SDS011;60008;50.826;6.896;2023-04-24T13:46:21;8.30;;;3.80;;
72132;SDS011;60008;50.826;6.896;2023-04-24T13:49:06;9.32;;;2.85;;
72132;SDS011;60008;50.826;6.896;2023-04-24T13:51:51;8.65;;;3.00;;
72132;SDS011;60008;50.826;6.896;2023-04-24T13:54:36;11.93;;;3.60;;
72132;SDS011;60008;50.826;6.896;2023-04-24T13:57:21;10.65;;;3.38;;
72132;SDS011;60008;50.826;6.896;2023-04-24T14:00:06;6.33;;;2.83;;
72132;SDS011;60008;50.826;6.896;2023-04-24T14:02:55;9.57;;;3.00;;
72132;SDS011;60008;50.826;6.896;2023-04-24T14:05:40;7.63;;;3.17;;
72132;SDS011;60008;50.826;6.896;2023-04-24T14:08:25;9.15;;;2.90;;
72132;SDS011;60008;50.826;6.896;2023-04-24T14:11:10;12.88;;;3.55;;
72132;SDS011;60008;50.826;6.896;2023-04-24T14:13:56;11.47;;;3.40;;
72132;SDS011;60008;50.826;6.896;2023-04-24T14:16:41;7.75;;;3.35;;
72132;SDS011;60008;50.826;6.896;2023-04-24T14:19:26;6.18;;;3.30;;
72132;SDS011;60008;50.826;6.896;2023-04-24T14:22:11;8.90;;;3.35;;
72132;SDS011;60008;50.826;6.896;2023-04-24T14:24:56;5.70;;;2.97;;
72132;SDS011;60008;50.826;6.896;2023-04-24T14:27:40;9.33;;;3.33;;
72132;SDS011;60008;50.826;6.896;2023-04-24T14:30:26;11.40;;;3.67;;
72132;SDS011;60008;50.826;6.896;2023-04-24T14:33:10;10.52;;;3.47;;
72132;SDS011;60008;50.826;6.896;2023-04-24T14:35:56;5.80;;;2.50;;
72132;SDS011;60008;50.826;6.896;2023-04-24T14:38:42;8.18;;;3.05;;
72132;SDS011;60008;50.826;6.896;2023-04-24T14:41:27;6.90;;;2.70;;
72132;SDS011;60008;50.826;6.896;2023-04-24T14:44:12;5.40;;;2.83;;
72132;SDS011;60008;50.826;6.896;2023-04-24T14:46:57;8.43;;;2.63;;
72132;SDS011;60008;50.826;6.896;2023-04-24T14:49:43;7.88;;;2.45;;
72132;SDS011;60008;50.826;6.896;2023-04-24T14:52:32;8.57;;;3.10;;
72132;SDS011;60008;50.826;6.896;2023-04-24T14:55:17;7.97;;;2.97;;
72132;SDS011;60008;50.826;6.896;2023-04-24T14:58:02;7.55;;;2.88;;
72132;SDS011;60008;50.826;6.896;2023-04-24T15:00:47;7.32;;;2.70;;
72132;SDS011;60008;50.826;6.896;2023-04-24T15:03:36;6.15;;;2.88;;
72132;SDS011;60008;50.826;6.896;2023-04-24T15:06:21;7.88;;;2.60;;
72132;SDS011;60008;50.826;6.896;2023-04-24T15:09:06;6.13;;;2.40;;
72132;SDS011;60008;50.826;6.896;2023-04-24T15:11:52;8.38;;;2.80;;
72132;SDS011;60008;50.826;6.896;2023-04-24T15:14:37;8.65;;;2.97;;
72132;SDS011;60008;50.826;6.896;2023-04-24T15:17:22;5.05;;;2.30;;
72132;SDS011;60008;50.826;6.896;2023-04-24T15:20:06;6.75;;;2.53;;
72132;SDS011;60008;50.826;6.896;2023-04-24T15:22:52;7.27;;;2.67;;
72132;SDS011;60008;50.826;6.896;2023-04-24T15:25:37;11.65;;;2.42;;
72132;SDS011;60008;50.826;6.896;2023-04-24T15:28:23;10.82;;;2.40;;
72132;SDS011;60008;50.826;6.896;2023-04-24T15:31:09;5.57;;;2.22;;
72132;SDS011;60008;50.826;6.896;2023-04-24T15:33:54;5.78;;;2.47;;
72132;SDS011;60008;50.826;6.896;2023-04-24T15:36:39;5.67;;;2.40;;
72132;SDS011;60008;50.826;6.896;2023-04-24T15:39:24;9.00;;;2.50;;
72132;SDS011;60008;50.826;6.896;2023-04-24T15:42:09;9.10;;;2.88;;
72132;SDS011;60008;50.826;6.896;2023-04-24T15:44:54;7.70;;;2.67;;
72132;SDS011;60008;50.826;6.896;2023-04-24T15:47:39;9.75;;;3.03;;
72132;SDS011;60008;50.826;6.896;2023-04-24T15:50:25;7.53;;;2.80;;
72132;SDS011;60008;50.826;6.896;2023-04-24T15:53:11;11.52;;;3.22;;
72132;SDS011;60008;50.826;6.896;2023-04-24T15:55:56;8.73;;;3.33;;
72132;SDS011;60008;50.826;6.896;2023-04-24T15:58:41;7.40;;;3.20;;
72132;SDS011;60008;50.826;6.896;2023-04-24T16:01:26;5.70;;;2.70;;
72132;SDS011;60008;50.826;6.896;2023-04-24T16:04:11;8.17;;;2.70;;
72132;SDS011;60008;50.826;6.896;2023-04-24T16:06:57;6.70;;;3.10;;
72132;SDS011;60008;50.826;6.896;2023-04-24T16:09:41;11.32;;;3.00;;
72132;SDS011;60008;50.826;6.896;2023-04-24T16:12:26;6.75;;;3.00;;
72132;SDS011;60008;50.826;6.896;2023-04-24T16:15:12;7.55;;;3.00;;
72132;SDS011;60008;50.826;6.896;2023-04-24T16:17:57;8.40;;;2.97;;
72132;SDS011;60008;50.826;6.896;2023-04-24T16:20:42;10.90;;;3.50;;
72132;SDS011;60008;50.826;6.896;2023-04-24T16:23:27;5.97;;;2.75;;
72132;SDS011;60008;50.826;6.896;2023-04-24T16:26:13;7.72;;;2.97;;
72132;SDS011;60008;50.826;6.896;2023-04-24T16:28:59;7.82;;;3.30;;
72132;SDS011;60008;50.826;6.896;2023-04-24T16:31:44;7.00;;;3.07;;
72132;SDS011;60008;50.826;6.896;2023-04-24T16:34:29;6.43;;;3.38;;
72132;SDS011;60008;50.826;6.896;2023-04-24T16:37:14;7.72;;;3.13;;
72132;SDS011;60008;50.826;6.896;2023-04-24T16:39:59;7.75;;;3.55;;
72132;SDS011;60008;50.826;6.896;2023-04-24T16:42:45;5.85;;;2.78;;
72132;SDS011;60008;50.826;6.896;2023-04-24T16:45:31;9.80;;;3.20;;